sensor_id;sensor_type;location;lat;lon;timestamp;temperature;humidity
8557;DHT22;4316;53.840;10.762;2022-11-21T00:00:30;0.00;99.90
8557;DHT22;4316;53.840;10.762;2022-11-21T00:02:59;-0.10;99.90
8557;DHT22;4316;53.840;10.762;2022-11-21T00:05:26;-0.10;99.90
8557;DHT22;4316;53.840;10.762;2022-11-21T00:07:52;-0.10;99.90
8557;DHT22;4316;53.840;10.762;2022-11-21T00:10:18;-0.10;99.90
8557;DHT22;4316;53.840;10.762;2022-11-21T00:12:44;-0.10;99.90
8557;DHT22;4316;53.840;10.762;2022-11-21T00:15:09;-0.20;99.90
8557;DHT22;4316;53.840;10.762;2022-11-21T00:17:35;-0.20;99.90
8557;DHT22;4316;53.840;10.762;2022-11-21T00:20:00;-0.30;99.90
8557;DHT22;4316;53.840;10.762;2022-11-21T00:22:26;-0.30;99.90
8557;DHT22;4316;53.840;10.762;2022-11-21T00:24:52;-0.30;99.90
8557;DHT22;4316;53.840;10.762;2022-11-21T00:27:17;-0.30;99.90
8557;DHT22;4316;53.840;10.762;2022-11-21T00:29:43;-0.40;99.90
8557;DHT22;4316;53.840;10.762;2022-11-21T00:32:08;-0.50;99.90
8557;DHT22;4316;53.840;10.762;2022-11-21T00:34:34;-0.50;99.90
8557;DHT22;4316;53.840;10.762;2022-11-21T00:36:59;-0.50;99.90
8557;DHT22;4316;53.840;10.762;2022-11-21T00:39:25;-0.50;99.90
8557;DHT22;4316;53.840;10.762;2022-11-21T00:41:50;-0.50;99.90
8557;DHT22;4316;53.840;10.762;2022-11-21T00:44:16;-0.60;99.90
8557;DHT22;4316;53.840;10.762;2022-11-21T00:46:41;-0.50;99.90
8557;DHT22;4316;53.840;10.762;2022-11-21T00:49:07;-0.50;99.90
8557;DHT22;4316;53.840;10.762;2022-11-21T00:51:32;-0.60;99.90
8557;DHT22;4316;53.840;10.762;2022-11-21T00:53:58;-0.60;99.90
8557;DHT22;4316;53.840;10.762;2022-11-21T00:56:23;-0.60;99.90
8557;DHT22;4316;53.840;10.762;2022-11-21T00:58:49;-0.70;99.90
8557;DHT22;4316;53.840;10.762;2022-11-21T01:01:15;-0.60;99.90
8557;DHT22;4316;53.840;10.762;2022-11-21T01:03:41;-0.60;99.90
8557;DHT22;4316;53.840;10.762;2022-11-21T01:06:09;-0.60;99.90
8557;DHT22;4316;53.840;10.762;2022-11-21T01:08:37;-0.60;99.90
8557;DHT22;4316;53.840;10.762;2022-11-21T01:11:08;-0.60;99.90
8557;DHT22;4316;53.840;10.762;2022-11-21T01:13:35;-0.70;99.90
8557;DHT22;4316;53.840;10.762;2022-11-21T01:16:05;-0.70;99.90
8557;DHT22;4316;53.840;10.762;2022-11-21T01:18:32;-0.70;99.90
8557;DHT22;4316;53.840;10.762;2022-11-21T01:21:05;-0.70;99.90
8557;DHT22;4316;53.840;10.762;2022-11-21T01:23:31;-0.70;99.90
8557;DHT22;4316;53.840;10.762;2022-11-21T01:26:01;-0.70;99.90
8557;DHT22;4316;53.840;10.762;2022-11-21T01:28:27;-0.80;99.90
8557;DHT22;4316;53.840;10.762;2022-11-21T01:30:52;-0.80;99.90
8557;DHT22;4316;53.840;10.762;2022-11-21T01:33:18;-0.80;99.90
8557;DHT22;4316;53.840;10.762;2022-11-21T01:35:44;-0.80;99.90
8557;DHT22;4316;53.840;10.762;2022-11-21T01:38:09;-0.90;99.90
8557;DHT22;4316;53.840;10.762;2022-11-21T01:40:39;-0.90;99.90
8557;DHT22;4316;53.840;10.762;2022-11-21T01:43:13;-0.80;99.90
8557;DHT22;4316;53.840;10.762;2022-11-21T01:48:18;-0.70;99.90
8557;DHT22;4316;53.840;10.762;2022-11-21T01:50:45;-0.90;99.90
8557;DHT22;4316;53.840;10.762;2022-11-21T01:53:10;-0.90;99.90
8557;DHT22;4316;53.840;10.762;2022-11-21T01:55:36;-1.00;99.90
8557;DHT22;4316;53.840;10.762;2022-11-21T01:58:02;-0.90;99.90
8557;DHT22;4316;53.840;10.762;2022-11-21T02:00:31;-1.00;99.90
8557;DHT22;4316;53.840;10.762;2022-11-21T02:03:05;-1.00;99.90
8557;DHT22;4316;53.840;10.762;2022-11-21T02:05:34;-0.90;99.90
8557;DHT22;4316;53.840;10.762;2022-11-21T02:08:04;-0.90;99.90
8557;DHT22;4316;53.840;10.762;2022-11-21T02:10:31;-0.90;99.90
8557;DHT22;4316;53.840;10.762;2022-11-21T02:12:58;-0.90;99.90
8557;DHT22;4316;53.840;10.762;2022-11-21T02:15:26;-0.90;99.90
8557;DHT22;4316;53.840;10.762;2022-11-21T02:17:52;-0.90;99.90
8557;DHT22;4316;53.840;10.762;2022-11-21T02:20:23;-0.90;99.90
8557;DHT22;4316;53.840;10.762;2022-11-21T02:25:52;-0.90;99.90
8557;DHT22;4316;53.840;10.762;2022-11-21T02:28:20;-0.90;99.90
8557;DHT22;4316;53.840;10.762;2022-11-21T02:30:48;-0.80;99.90
8557;DHT22;4316;53.840;10.762;2022-11-21T02:33:14;-0.90;99.90
8557;DHT22;4316;53.840;10.762;2022-11-21T02:35:40;-0.80;99.90
8557;DHT22;4316;53.840;10.762;2022-11-21T02:40:40;-0.80;99.90
8557;DHT22;4316;53.840;10.762;2022-11-21T02:43:21;-0.80;99.90
8557;DHT22;4316;53.840;10.762;2022-11-21T02:45:47;-0.80;99.90
8557;DHT22;4316;53.840;10.762;2022-11-21T02:48:13;-0.90;99.90
8557;DHT22;4316;53.840;10.762;2022-11-21T02:50:40;-0.90;99.90
8557;DHT22;4316;53.840;10.762;2022-11-21T02:53:10;-0.80;99.90
8557;DHT22;4316;53.840;10.762;2022-11-21T02:55:36;-0.80;99.90
8557;DHT22;4316;53.840;10.762;2022-11-21T02:58:03;-0.70;99.90
8557;DHT22;4316;53.840;10.762;2022-11-21T03:00:29;-0.70;99.90
8557;DHT22;4316;53.840;10.762;2022-11-21T03:02:54;-0.70;99.90
8557;DHT22;4316;53.840;10.762;2022-11-21T03:05:21;-0.70;99.90
8557;DHT22;4316;53.840;10.762;2022-11-21T03:07:47;-0.70;99.90
8557;DHT22;4316;53.840;10.762;2022-11-21T03:10:13;-0.70;99.90
8557;DHT22;4316;53.840;10.762;2022-11-21T03:12:40;-0.70;99.90
8557;DHT22;4316;53.840;10.762;2022-11-21T03:15:08;-0.70;99.90
8557;DHT22;4316;53.840;10.762;2022-11-21T03:17:34;-0.70;99.90
8557;DHT22;4316;53.840;10.762;2022-11-21T03:20:00;-0.70;99.90
8557;DHT22;4316;53.840;10.762;2022-11-21T03:22:26;-0.70;99.90
8557;DHT22;4316;53.840;10.762;2022-11-21T03:24:52;-0.70;99.90
8557;DHT22;4316;53.840;10.762;2022-11-21T03:27:17;-0.70;99.90
8557;DHT22;4316;53.840;10.762;2022-11-21T03:29:43;-0.70;99.90
8557;DHT22;4316;53.840;10.762;2022-11-21T03:32:09;-0.70;99.90
8557;DHT22;4316;53.840;10.762;2022-11-21T03:34:34;-0.70;99.90
8557;DHT22;4316;53.840;10.762;2022-11-21T03:37:00;-0.70;99.90
8557;DHT22;4316;53.840;10.762;2022-11-21T03:39:25;-0.70;99.90
8557;DHT22;4316;53.840;10.762;2022-11-21T03:41:51;-0.70;99.90
8557;DHT22;4316;53.840;10.762;2022-11-21T03:44:17;-0.70;99.90
8557;DHT22;4316;53.840;10.762;2022-11-21T03:46:44;-0.70;99.90
8557;DHT22;4316;53.840;10.762;2022-11-21T03:49:11;-0.70;99.90
8557;DHT22;4316;53.840;10.762;2022-11-21T03:51:37;-0.70;99.90
8557;DHT22;4316;53.840;10.762;2022-11-21T03:54:04;-0.70;99.90
8557;DHT22;4316;53.840;10.762;2022-11-21T03:56:29;-0.60;99.90
8557;DHT22;4316;53.840;10.762;2022-11-21T03:58:55;-0.60;99.90
8557;DHT22;4316;53.840;10.762;2022-11-21T04:01:21;-0.60;99.90
8557;DHT22;4316;53.840;10.762;2022-11-21T04:03:47;-0.60;99.90
8557;DHT22;4316;53.840;10.762;2022-11-21T04:06:15;-0.60;99.90
8557;DHT22;4316;53.840;10.762;2022-11-21T04:08:41;-0.60;99.90
8557;DHT22;4316;53.840;10.762;2022-11-21T04:11:08;-0.50;99.90
8557;DHT22;4316;53.840;10.762;2022-11-21T04:13:34;-0.60;99.90
8557;DHT22;4316;53.840;10.762;2022-11-21T04:15:59;-0.50;99.90
8557;DHT22;4316;53.840;10.762;2022-11-21T04:18:25;-0.60;99.90
8557;DHT22;4316;53.840;10.762;2022-11-21T04:20:56;-0.60;99.90
8557;DHT22;4316;53.840;10.762;2022-11-21T04:23:22;-0.60;99.90
8557;DHT22;4316;53.840;10.762;2022-11-21T04:25:48;-0.80;99.90
8557;DHT22;4316;53.840;10.762;2022-11-21T04:28:13;-0.70;99.90
8557;DHT22;4316;53.840;10.762;2022-11-21T04:30:39;-0.70;99.90
8557;DHT22;4316;53.840;10.762;2022-11-21T04:33:05;-0.80;99.90
8557;DHT22;4316;53.840;10.762;2022-11-21T04:35:30;-0.70;99.90
8557;DHT22;4316;53.840;10.762;2022-11-21T04:37:56;-0.70;99.90
8557;DHT22;4316;53.840;10.762;2022-11-21T04:40:21;-0.70;99.90
8557;DHT22;4316;53.840;10.762;2022-11-21T04:42:47;-0.70;99.90
8557;DHT22;4316;53.840;10.762;2022-11-21T04:45:15;-0.70;99.90
8557;DHT22;4316;53.840;10.762;2022-11-21T04:47:43;-0.20;99.90
8557;DHT22;4316;53.840;10.762;2022-11-21T04:50:11;-0.70;99.90
8557;DHT22;4316;53.840;10.762;2022-11-21T04:52:37;-0.70;99.90
8557;DHT22;4316;53.840;10.762;2022-11-21T04:55:03;-0.60;99.90
8557;DHT22;4316;53.840;10.762;2022-11-21T04:57:30;-0.50;99.90
8557;DHT22;4316;53.840;10.762;2022-11-21T04:59:56;-0.50;99.90
8557;DHT22;4316;53.840;10.762;2022-11-21T05:02:22;-0.50;99.90
8557;DHT22;4316;53.840;10.762;2022-11-21T05:04:48;-0.60;99.90
8557;DHT22;4316;53.840;10.762;2022-11-21T05:07:13;-0.50;99.90
8557;DHT22;4316;53.840;10.762;2022-11-21T05:09:39;-0.50;99.90
8557;DHT22;4316;53.840;10.762;2022-11-21T05:12:05;-0.60;99.90
8557;DHT22;4316;53.840;10.762;2022-11-21T05:14:49;-0.60;99.90
8557;DHT22;4316;53.840;10.762;2022-11-21T05:17:15;-0.60;99.90
8557;DHT22;4316;53.840;10.762;2022-11-21T05:19:40;-0.60;99.90
8557;DHT22;4316;53.840;10.762;2022-11-21T05:22:06;-0.60;99.90
8557;DHT22;4316;53.840;10.762;2022-11-21T05:24:32;-0.50;99.90
8557;DHT22;4316;53.840;10.762;2022-11-21T05:26:57;-0.60;99.90
8557;DHT22;4316;53.840;10.762;2022-11-21T05:29:23;-0.60;99.90
8557;DHT22;4316;53.840;10.762;2022-11-21T05:31:48;-0.60;99.90
8557;DHT22;4316;53.840;10.762;2022-11-21T05:34:14;-0.50;99.90
8557;DHT22;4316;53.840;10.762;2022-11-21T05:36:40;-0.60;99.90
8557;DHT22;4316;53.840;10.762;2022-11-21T05:39:05;-0.60;99.90
8557;DHT22;4316;53.840;10.762;2022-11-21T05:41:31;-0.50;99.90
8557;DHT22;4316;53.840;10.762;2022-11-21T05:43:56;-0.50;99.90
8557;DHT22;4316;53.840;10.762;2022-11-21T05:46:23;-0.50;99.90
8557;DHT22;4316;53.840;10.762;2022-11-21T05:48:50;-0.50;99.90
8557;DHT22;4316;53.840;10.762;2022-11-21T05:51:16;-0.60;99.90
8557;DHT22;4316;53.840;10.762;2022-11-21T05:53:43;-0.60;99.90
8557;DHT22;4316;53.840;10.762;2022-11-21T05:56:14;-0.60;99.90
8557;DHT22;4316;53.840;10.762;2022-11-21T05:58:40;-0.60;99.90
8557;DHT22;4316;53.840;10.762;2022-11-21T06:01:06;-0.60;99.90
8557;DHT22;4316;53.840;10.762;2022-11-21T06:03:35;-0.60;99.90
8557;DHT22;4316;53.840;10.762;2022-11-21T06:06:09;-0.60;99.90
8557;DHT22;4316;53.840;10.762;2022-11-21T06:08:37;-0.60;99.90
8557;DHT22;4316;53.840;10.762;2022-11-21T06:11:07;-0.60;99.90
8557;DHT22;4316;53.840;10.762;2022-11-21T06:13:34;-0.50;99.90
8557;DHT22;4316;53.840;10.762;2022-11-21T06:16:03;-0.60;99.90
8557;DHT22;4316;53.840;10.762;2022-11-21T06:18:32;-0.50;99.90
8557;DHT22;4316;53.840;10.762;2022-11-21T06:21:10;-0.50;99.90
8557;DHT22;4316;53.840;10.762;2022-11-21T06:23:36;-0.50;99.90
8557;DHT22;4316;53.840;10.762;2022-11-21T06:26:04;-0.50;99.90
8557;DHT22;4316;53.840;10.762;2022-11-21T06:28:32;-0.50;99.90
8557;DHT22;4316;53.840;10.762;2022-11-21T06:31:06;-0.40;99.90
8557;DHT22;4316;53.840;10.762;2022-11-21T06:33:33;-0.50;99.90
8557;DHT22;4316;53.840;10.762;2022-11-21T06:36:06;-0.40;99.90
8557;DHT22;4316;53.840;10.762;2022-11-21T06:38:33;-0.40;99.90
8557;DHT22;4316;53.840;10.762;2022-11-21T06:41:04;-0.50;99.90
8557;DHT22;4316;53.840;10.762;2022-11-21T06:43:30;-0.40;99.90
8557;DHT22;4316;53.840;10.762;2022-11-21T06:45:55;-0.50;99.90
8557;DHT22;4316;53.840;10.762;2022-11-21T06:48:21;-0.50;99.90
8557;DHT22;4316;53.840;10.762;2022-11-21T06:50:47;-0.40;99.90
8557;DHT22;4316;53.840;10.762;2022-11-21T06:53:12;-0.40;99.90
8557;DHT22;4316;53.840;10.762;2022-11-21T06:55:38;-0.30;99.90
8557;DHT22;4316;53.840;10.762;2022-11-21T06:58:03;-0.40;99.90
8557;DHT22;4316;53.840;10.762;2022-11-21T07:00:29;-0.30;99.90
8557;DHT22;4316;53.840;10.762;2022-11-21T07:02:59;-0.40;99.90
8557;DHT22;4316;53.840;10.762;2022-11-21T07:05:26;-0.40;99.90
8557;DHT22;4316;53.840;10.762;2022-11-21T07:07:57;-0.40;99.90
8557;DHT22;4316;53.840;10.762;2022-11-21T07:10:22;-0.50;99.90
8557;DHT22;4316;53.840;10.762;2022-11-21T07:12:48;-0.60;99.90
8557;DHT22;4316;53.840;10.762;2022-11-21T07:15:32;-0.50;99.90
8557;DHT22;4316;53.840;10.762;2022-11-21T07:17:57;-0.50;99.90
8557;DHT22;4316;53.840;10.762;2022-11-21T07:20:23;-0.50;99.90
8557;DHT22;4316;53.840;10.762;2022-11-21T07:22:53;-0.40;99.90
8557;DHT22;4316;53.840;10.762;2022-11-21T07:25:20;-0.40;99.90
8557;DHT22;4316;53.840;10.762;2022-11-21T07:27:45;-0.30;99.90
8557;DHT22;4316;53.840;10.762;2022-11-21T07:30:11;-0.30;99.90
8557;DHT22;4316;53.840;10.762;2022-11-21T07:32:37;-0.30;99.90
8557;DHT22;4316;53.840;10.762;2022-11-21T07:35:02;-0.30;99.90
8557;DHT22;4316;53.840;10.762;2022-11-21T07:37:28;-0.20;99.90
8557;DHT22;4316;53.840;10.762;2022-11-21T07:39:54;-0.30;99.90
8557;DHT22;4316;53.840;10.762;2022-11-21T07:42:19;-0.30;99.90
8557;DHT22;4316;53.840;10.762;2022-11-21T07:44:45;-0.30;99.90
8557;DHT22;4316;53.840;10.762;2022-11-21T07:47:10;-0.20;99.90
8557;DHT22;4316;53.840;10.762;2022-11-21T07:49:36;-0.30;99.90
8557;DHT22;4316;53.840;10.762;2022-11-21T07:52:01;-0.30;99.90
8557;DHT22;4316;53.840;10.762;2022-11-21T07:54:27;-0.30;99.90
8557;DHT22;4316;53.840;10.762;2022-11-21T07:56:52;-0.20;99.90
8557;DHT22;4316;53.840;10.762;2022-11-21T07:59:18;-0.10;99.90
8557;DHT22;4316;53.840;10.762;2022-11-21T08:01:44;-0.20;99.90
8557;DHT22;4316;53.840;10.762;2022-11-21T08:04:10;-0.20;99.90
8557;DHT22;4316;53.840;10.762;2022-11-21T08:06:36;-0.20;99.90
8557;DHT22;4316;53.840;10.762;2022-11-21T08:09:01;-0.10;99.90
8557;DHT22;4316;53.840;10.762;2022-11-21T08:11:27;-0.10;99.90
8557;DHT22;4316;53.840;10.762;2022-11-21T08:13:53;-0.10;99.90
8557;DHT22;4316;53.840;10.762;2022-11-21T08:16:18;-0.10;99.90
8557;DHT22;4316;53.840;10.762;2022-11-21T08:18:44;0.20;99.90
8557;DHT22;4316;53.840;10.762;2022-11-21T08:21:10;1.00;99.90
8557;DHT22;4316;53.840;10.762;2022-11-21T08:23:35;1.90;99.90
8557;DHT22;4316;53.840;10.762;2022-11-21T08:26:01;2.80;99.90
8557;DHT22;4316;53.840;10.762;2022-11-21T08:28:26;3.50;99.90
8557;DHT22;4316;53.840;10.762;2022-11-21T08:30:52;3.90;99.90
8557;DHT22;4316;53.840;10.762;2022-11-21T08:33:18;4.40;99.90
8557;DHT22;4316;53.840;10.762;2022-11-21T08:35:43;4.60;99.90
8557;DHT22;4316;53.840;10.762;2022-11-21T08:38:09;4.40;99.90
8557;DHT22;4316;53.840;10.762;2022-11-21T08:40:35;4.60;99.90
8557;DHT22;4316;53.840;10.762;2022-11-21T08:43:06;4.80;99.90
8557;DHT22;4316;53.840;10.762;2022-11-21T08:45:33;5.10;99.90
8557;DHT22;4316;53.840;10.762;2022-11-21T08:48:00;5.40;99.90
8557;DHT22;4316;53.840;10.762;2022-11-21T08:50:26;5.50;99.90
8557;DHT22;4316;53.840;10.762;2022-11-21T08:52:57;4.80;99.90
8557;DHT22;4316;53.840;10.762;2022-11-21T08:55:23;4.50;99.90
8557;DHT22;4316;53.840;10.762;2022-11-21T08:57:48;4.30;99.90
8557;DHT22;4316;53.840;10.762;2022-11-21T09:00:14;4.20;99.90
8557;DHT22;4316;53.840;10.762;2022-11-21T09:02:40;4.00;99.90
8557;DHT22;4316;53.840;10.762;2022-11-21T09:05:06;3.80;99.90
8557;DHT22;4316;53.840;10.762;2022-11-21T09:07:31;3.60;99.90
8557;DHT22;4316;53.840;10.762;2022-11-21T09:09:57;3.30;99.90
8557;DHT22;4316;53.840;10.762;2022-11-21T09:12:22;3.00;99.90
8557;DHT22;4316;53.840;10.762;2022-11-21T09:14:48;2.80;99.90
8557;DHT22;4316;53.840;10.762;2022-11-21T09:17:32;2.60;99.90
8557;DHT22;4316;53.840;10.762;2022-11-21T09:20:16;2.30;99.90
8557;DHT22;4316;53.840;10.762;2022-11-21T09:22:42;2.20;99.90
8557;DHT22;4316;53.840;10.762;2022-11-21T09:25:08;2.00;99.90
8557;DHT22;4316;53.840;10.762;2022-11-21T09:27:33;1.90;99.90
8557;DHT22;4316;53.840;10.762;2022-11-21T09:29:59;1.80;99.90
8557;DHT22;4316;53.840;10.762;2022-11-21T09:32:24;1.70;99.90
8557;DHT22;4316;53.840;10.762;2022-11-21T09:34:50;1.70;99.90
8557;DHT22;4316;53.840;10.762;2022-11-21T09:37:16;1.60;99.90
8557;DHT22;4316;53.840;10.762;2022-11-21T09:39:41;1.90;99.90
8557;DHT22;4316;53.840;10.762;2022-11-21T09:42:21;1.60;99.90
8557;DHT22;4316;53.840;10.762;2022-11-21T09:47:40;1.60;99.90
8557;DHT22;4316;53.840;10.762;2022-11-21T09:52:39;1.50;99.90
8557;DHT22;4316;53.840;10.762;2022-11-21T09:55:30;1.50;99.90
8557;DHT22;4316;53.840;10.762;2022-11-21T09:58:03;1.50;99.90
8557;DHT22;4316;53.840;10.762;2022-11-21T10:00:30;1.60;99.90
8557;DHT22;4316;53.840;10.762;2022-11-21T10:02:56;1.60;99.90
8557;DHT22;4316;53.840;10.762;2022-11-21T10:05:32;1.60;99.90
8557;DHT22;4316;53.840;10.762;2022-11-21T10:08:12;1.50;99.90
8557;DHT22;4316;53.840;10.762;2022-11-21T10:10:54;1.60;99.90
8557;DHT22;4316;53.840;10.762;2022-11-21T10:24:51;1.60;99.90
8557;DHT22;4316;53.840;10.762;2022-11-21T10:27:33;1.70;99.90
8557;DHT22;4316;53.840;10.762;2022-11-21T10:30:04;1.70;99.90
8557;DHT22;4316;53.840;10.762;2022-11-21T10:32:42;1.70;99.90
8557;DHT22;4316;53.840;10.762;2022-11-21T10:35:18;1.60;99.90
8557;DHT22;4316;53.840;10.762;2022-11-21T10:37:52;1.50;99.90
8557;DHT22;4316;53.840;10.762;2022-11-21T10:42:59;1.60;99.90
8557;DHT22;4316;53.840;10.762;2022-11-21T10:45:50;1.60;99.90
8557;DHT22;4316;53.840;10.762;2022-11-21T10:48:16;1.60;99.90
8557;DHT22;4316;53.840;10.762;2022-11-21T10:53:35;1.90;99.90
8557;DHT22;4316;53.840;10.762;2022-11-21T10:56:21;2.00;99.90
8557;DHT22;4316;53.840;10.762;2022-11-21T10:58:53;2.10;99.90
8557;DHT22;4316;53.840;10.762;2022-11-21T11:01:31;2.20;99.90
8557;DHT22;4316;53.840;10.762;2022-11-21T11:06:38;2.50;99.90
8557;DHT22;4316;53.840;10.762;2022-11-21T11:09:04;2.40;99.90
8557;DHT22;4316;53.840;10.762;2022-11-21T11:11:32;2.50;99.90
8557;DHT22;4316;53.840;10.762;2022-11-21T11:14:05;2.50;99.90
8557;DHT22;4316;53.840;10.762;2022-11-21T11:16:43;2.60;99.90
8557;DHT22;4316;53.840;10.762;2022-11-21T11:29:32;2.70;99.90
8557;DHT22;4316;53.840;10.762;2022-11-21T11:32:14;2.60;99.90
8557;DHT22;4316;53.840;10.762;2022-11-21T11:34:54;2.70;99.90
8557;DHT22;4316;53.840;10.762;2022-11-21T11:39:57;2.70;99.90
8557;DHT22;4316;53.840;10.762;2022-11-21T11:42:42;2.60;99.90
8557;DHT22;4316;53.840;10.762;2022-11-21T11:46:02;2.60;99.90
8557;DHT22;4316;53.840;10.762;2022-11-21T11:48:52;2.70;99.90
8557;DHT22;4316;53.840;10.762;2022-11-21T11:51:27;2.70;99.90
8557;DHT22;4316;53.840;10.762;2022-11-21T11:54:07;2.70;99.90
8557;DHT22;4316;53.840;10.762;2022-11-21T11:56:36;2.70;99.90
8557;DHT22;4316;53.840;10.762;2022-11-21T11:59:20;2.80;99.90
8557;DHT22;4316;53.840;10.762;2022-11-21T12:04:19;2.90;99.90
8557;DHT22;4316;53.840;10.762;2022-11-21T12:07:00;2.90;99.90
8557;DHT22;4316;53.840;10.762;2022-11-21T12:12:22;2.90;99.90
8557;DHT22;4316;53.840;10.762;2022-11-21T12:23:12;2.90;99.90
8557;DHT22;4316;53.840;10.762;2022-11-21T12:25:52;2.90;99.90
8557;DHT22;4316;53.840;10.762;2022-11-21T12:29:04;2.90;99.90
8557;DHT22;4316;53.840;10.762;2022-11-21T12:34:23;2.90;99.90
8557;DHT22;4316;53.840;10.762;2022-11-21T12:39:53;2.80;99.90
8557;DHT22;4316;53.840;10.762;2022-11-21T12:48:24;2.80;99.90
8557;DHT22;4316;53.840;10.762;2022-11-21T12:57:56;2.90;99.90
8557;DHT22;4316;53.840;10.762;2022-11-21T13:03:42;2.80;99.90
8557;DHT22;4316;53.840;10.762;2022-11-21T13:06:00;2.80;99.90
8557;DHT22;4316;53.840;10.762;2022-11-21T13:08:30;2.70;99.90
8557;DHT22;4316;53.840;10.762;2022-11-21T13:20:12;2.80;99.90
8557;DHT22;4316;53.840;10.762;2022-11-21T13:25:09;2.80;99.90
8557;DHT22;4316;53.840;10.762;2022-11-21T13:38:04;2.90;99.90
8557;DHT22;4316;53.840;10.762;2022-11-21T13:40:36;2.90;99.90
8557;DHT22;4316;53.840;10.762;2022-11-21T13:45:45;2.70;99.90
8557;DHT22;4316;53.840;10.762;2022-11-21T13:56:55;2.60;99.90
8557;DHT22;4316;53.840;10.762;2022-11-21T14:02:39;2.50;99.90
8557;DHT22;4316;53.840;10.762;2022-11-21T14:08:25;2.40;99.90
8557;DHT22;4316;53.840;10.762;2022-11-21T14:10:52;2.40;99.90
8557;DHT22;4316;53.840;10.762;2022-11-21T14:13:23;2.30;99.90
8557;DHT22;4316;53.840;10.762;2022-11-21T14:16:16;2.40;99.90
8557;DHT22;4316;53.840;10.762;2022-11-21T14:18:45;2.40;99.90
8557;DHT22;4316;53.840;10.762;2022-11-21T14:21:26;2.30;99.90
8557;DHT22;4316;53.840;10.762;2022-11-21T14:23:59;2.30;99.90
8557;DHT22;4316;53.840;10.762;2022-11-21T14:26:32;2.30;99.90
8557;DHT22;4316;53.840;10.762;2022-11-21T14:31:48;2.30;99.90
8557;DHT22;4316;53.840;10.762;2022-11-21T14:34:27;2.30;99.90
8557;DHT22;4316;53.840;10.762;2022-11-21T14:36:53;2.30;99.90
8557;DHT22;4316;53.840;10.762;2022-11-21T14:39:23;2.40;99.90
8557;DHT22;4316;53.840;10.762;2022-11-21T14:42:02;2.40;99.90
8557;DHT22;4316;53.840;10.762;2022-11-21T14:44:28;2.40;99.90
8557;DHT22;4316;53.840;10.762;2022-11-21T14:47:13;2.20;99.90
8557;DHT22;4316;53.840;10.762;2022-11-21T14:49:47;2.20;99.90
8557;DHT22;4316;53.840;10.762;2022-11-21T14:52:22;2.10;99.90
8557;DHT22;4316;53.840;10.762;2022-11-21T14:54:53;2.10;99.90
8557;DHT22;4316;53.840;10.762;2022-11-21T14:57:23;2.10;99.90
8557;DHT22;4316;53.840;10.762;2022-11-21T14:59:49;2.00;99.90
8557;DHT22;4316;53.840;10.762;2022-11-21T15:02:24;1.90;99.90
8557;DHT22;4316;53.840;10.762;2022-11-21T15:04:52;1.70;99.90
8557;DHT22;4316;53.840;10.762;2022-11-21T15:07:22;1.60;99.90
8557;DHT22;4316;53.840;10.762;2022-11-21T15:09:49;1.60;99.90
8557;DHT22;4316;53.840;10.762;2022-11-21T15:15:35;1.50;99.90
8557;DHT22;4316;53.840;10.762;2022-11-21T15:18:05;1.50;99.90
8557;DHT22;4316;53.840;10.762;2022-11-21T15:20:31;1.50;99.90
8557;DHT22;4316;53.840;10.762;2022-11-21T15:22:59;1.50;99.90
8557;DHT22;4316;53.840;10.762;2022-11-21T15:25:30;1.50;99.90
8557;DHT22;4316;53.840;10.762;2022-11-21T15:30:30;1.40;99.90
8557;DHT22;4316;53.840;10.762;2022-11-21T15:33:10;1.30;99.90
8557;DHT22;4316;53.840;10.762;2022-11-21T15:38:25;1.10;99.90
8557;DHT22;4316;53.840;10.762;2022-11-21T15:43:46;1.10;99.90
8557;DHT22;4316;53.840;10.762;2022-11-21T15:48:43;1.00;99.90
8557;DHT22;4316;53.840;10.762;2022-11-21T15:51:09;1.00;99.90
8557;DHT22;4316;53.840;10.762;2022-11-21T15:53:36;1.00;99.90
8557;DHT22;4316;53.840;10.762;2022-11-21T15:56:01;1.10;99.90
8557;DHT22;4316;53.840;10.762;2022-11-21T15:58:27;1.10;99.90
8557;DHT22;4316;53.840;10.762;2022-11-21T16:00:52;1.00;99.90
8557;DHT22;4316;53.840;10.762;2022-11-21T16:03:18;1.10;99.90
8557;DHT22;4316;53.840;10.762;2022-11-21T16:05:44;1.00;99.90
8557;DHT22;4316;53.840;10.762;2022-11-21T16:08:09;1.00;99.90
8557;DHT22;4316;53.840;10.762;2022-11-21T16:10:35;1.00;99.90
8557;DHT22;4316;53.840;10.762;2022-11-21T16:13:01;1.00;99.90
8557;DHT22;4316;53.840;10.762;2022-11-21T16:15:26;1.00;99.90
8557;DHT22;4316;53.840;10.762;2022-11-21T16:17:52;0.90;99.90
8557;DHT22;4316;53.840;10.762;2022-11-21T16:20:18;0.90;99.90
8557;DHT22;4316;53.840;10.762;2022-11-21T16:22:43;0.70;99.90
8557;DHT22;4316;53.840;10.762;2022-11-21T16:25:09;0.70;99.90
8557;DHT22;4316;53.840;10.762;2022-11-21T16:27:35;1.00;99.90
8557;DHT22;4316;53.840;10.762;2022-11-21T16:30:01;1.10;99.90
8557;DHT22;4316;53.840;10.762;2022-11-21T16:32:26;1.30;99.90
8557;DHT22;4316;53.840;10.762;2022-11-21T16:34:52;1.20;99.90
8557;DHT22;4316;53.840;10.762;2022-11-21T16:37:19;1.10;99.90
8557;DHT22;4316;53.840;10.762;2022-11-21T16:39:45;1.20;99.90
8557;DHT22;4316;53.840;10.762;2022-11-21T16:42:16;1.30;99.90
8557;DHT22;4316;53.840;10.762;2022-11-21T16:44:42;1.40;99.90
8557;DHT22;4316;53.840;10.762;2022-11-21T16:47:08;1.60;99.90
8557;DHT22;4316;53.840;10.762;2022-11-21T16:49:34;1.80;99.90
8557;DHT22;4316;53.840;10.762;2022-11-21T16:51:59;2.00;99.90
8557;DHT22;4316;53.840;10.762;2022-11-21T16:54:25;2.00;99.90
8557;DHT22;4316;53.840;10.762;2022-11-21T16:56:50;2.00;99.90
8557;DHT22;4316;53.840;10.762;2022-11-21T16:59:16;2.10;99.90
8557;DHT22;4316;53.840;10.762;2022-11-21T17:01:41;2.20;99.90
8557;DHT22;4316;53.840;10.762;2022-11-21T17:04:07;2.20;99.90
8557;DHT22;4316;53.840;10.762;2022-11-21T17:06:34;2.10;99.90
8557;DHT22;4316;53.840;10.762;2022-11-21T17:09:00;2.10;99.90
8557;DHT22;4316;53.840;10.762;2022-11-21T17:11:28;2.00;99.90
8557;DHT22;4316;53.840;10.762;2022-11-21T17:14:00;1.80;99.90
8557;DHT22;4316;53.840;10.762;2022-11-21T17:16:26;1.40;99.90
8557;DHT22;4316;53.840;10.762;2022-11-21T17:18:57;1.40;99.90
8557;DHT22;4316;53.840;10.762;2022-11-21T17:21:24;1.40;99.90
8557;DHT22;4316;53.840;10.762;2022-11-21T17:23:50;1.50;99.90
8557;DHT22;4316;53.840;10.762;2022-11-21T17:26:21;1.50;99.90
8557;DHT22;4316;53.840;10.762;2022-11-21T17:28:55;1.50;99.90
8557;DHT22;4316;53.840;10.762;2022-11-21T17:31:21;1.60;99.90
8557;DHT22;4316;53.840;10.762;2022-11-21T17:33:47;1.60;99.90
8557;DHT22;4316;53.840;10.762;2022-11-21T17:36:18;1.60;99.90
8557;DHT22;4316;53.840;10.762;2022-11-21T17:38:45;1.60;99.90
8557;DHT22;4316;53.840;10.762;2022-11-21T17:41:14;1.60;99.90
8557;DHT22;4316;53.840;10.762;2022-11-21T17:43:40;1.60;99.90
8557;DHT22;4316;53.840;10.762;2022-11-21T17:46:14;1.40;99.90
8557;DHT22;4316;53.840;10.762;2022-11-21T17:48:41;1.00;99.90
8557;DHT22;4316;53.840;10.762;2022-11-21T17:51:11;1.10;99.90
8557;DHT22;4316;53.840;10.762;2022-11-21T17:53:39;0.90;99.90
8557;DHT22;4316;53.840;10.762;2022-11-21T17:56:08;1.00;99.90
8557;DHT22;4316;53.840;10.762;2022-11-21T17:58:34;1.20;99.90
8557;DHT22;4316;53.840;10.762;2022-11-21T18:01:02;1.30;99.90
8557;DHT22;4316;53.840;10.762;2022-11-21T18:03:28;1.40;99.90
8557;DHT22;4316;53.840;10.762;2022-11-21T18:08:29;1.40;99.90
8557;DHT22;4316;53.840;10.762;2022-11-21T18:10:55;1.50;99.90
8557;DHT22;4316;53.840;10.762;2022-11-21T18:13:20;1.50;99.90
8557;DHT22;4316;53.840;10.762;2022-11-21T18:15:46;1.50;99.90
8557;DHT22;4316;53.840;10.762;2022-11-21T18:18:11;1.50;99.90
8557;DHT22;4316;53.840;10.762;2022-11-21T18:20:37;1.40;99.90
8557;DHT22;4316;53.840;10.762;2022-11-21T18:23:03;1.40;99.90